Time;durP1;ratioP1;P1;durP2;ratioP2;P2;SDS_P1;SDS_P2;PMS_P1;PMS_P2;Temp;Humidity;BMP_temperature;BMP_pressure;BME280_temperature;BME280_humidity;BME280_pressure;Samples;Min_cycle;Max_cycle;Signal;HPM_P1;HPM_P2
2022/02/14 00:00:57;;;;;;;41.63;18.73;;;;;;;;;;5053035;28;20263;-84
2022/02/14 00:03:23;;;;;;;43.63;19.07;;;-0.60;99.90;;;;;;5018838;28;20810;-84
2022/02/14 00:05:49;;;;;;;39.40;18.70;;;0.80;99.90;;;;;;5053328;28;20210;-84
2022/02/14 00:08:15;;;;;;;40.53;18.70;;;-0.60;99.90;;;;;;5035522;28;20184;-84
2022/02/14 00:10:41;;;;;;;35.77;17.43;;;;;;;;;;5035576;28;20641;-84
2022/02/14 00:13:06;;;;;;;29.10;14.80;;;-0.60;99.90;;;;;;5035451;28;20190;-84
2022/02/14 00:15:33;;;;;;;33.43;15.17;;;;;;;;;;5053405;28;20530;-84
2022/02/14 00:17:58;;;;;;;32.40;16.07;;;-0.60;99.90;;;;;;5018734;28;20241;-84
2022/02/14 00:20:24;;;;;;;31.77;16.70;;;;;;;;;;5035367;28;20180;-84
2022/02/14 00:22:50;;;;;;;26.30;14.50;;;-0.60;99.90;;;;;;5035218;28;20260;-84
2022/02/14 00:25:19;;;;;;;29.93;13.27;;;-0.60;99.90;;;;;;5018905;28;20206;-84
2022/02/14 00:27:46;;;;;;;21.57;12.30;;;0.40;99.90;;;;;;5035299;28;20646;-84
2022/02/14 00:30:12;;;;;;;21.73;12.60;;;;;;;;;;5035223;28;20190;-84
2022/02/14 00:32:38;;;;;;;29.40;13.80;;;-0.50;99.90;;;;;;5052948;28;20181;-84
2022/02/14 00:35:04;;;;;;;29.03;14.60;;;-0.50;99.90;;;;;;5034727;28;20195;-84
2022/02/14 00:37:30;;;;;;;26.07;13.77;;;;;;;;;;5052855;28;20190;-84
2022/02/14 00:39:56;;;;;;;30.30;14.50;;;-0.60;99.90;;;;;;5018565;28;20188;-84
2022/02/14 00:42:23;;;;;;;33.47;15.47;;;;;;;;;;5018162;28;20297;-84
2022/02/14 00:44:49;;;;;;;27.87;14.00;;;;;;;;;;5052760;28;20190;-84
2022/02/14 00:47:15;;;;;;;36.77;17.53;;;;;;;;;;5034609;28;20222;-85
2022/02/14 00:49:41;;;;;;;32.97;15.07;;;;;;;;;;5052398;28;20626;-84
2022/02/14 00:52:07;;;;;;;26.70;14.00;;;-0.70;99.90;;;;;;5018445;28;20215;-84
2022/02/14 00:54:34;;;;;;;30.60;15.43;;;;;;;;;;5034573;28;20187;-84
2022/02/14 00:57:00;;;;;;;35.30;16.53;;;-0.80;99.90;;;;;;5052996;28;20625;-83
2022/02/14 00:59:27;;;;;;;43.03;20.10;;;-0.70;99.90;;;;;;5001853;28;20717;-83
2022/02/14 01:01:52;;;;;;;29.87;15.23;;;-0.70;99.90;;;;;;5052600;28;20218;-83
2022/02/14 01:04:18;;;;;;;41.97;19.13;;;1.60;99.90;;;;;;5034646;28;20262;-83
2022/02/14 01:06:44;;;;;;;35.33;16.50;;;1.10;99.90;;;;;;5052410;28;20289;-83
2022/02/14 01:09:10;;;;;;;48.33;20.33;;;0.30;99.90;;;;;;5052508;28;20293;-84
2022/02/14 01:11:36;;;;;;;42.70;19.43;;;0.90;99.90;;;;;;5018201;28;20285;-84
2022/02/14 01:14:01;;;;;;;52.30;22.70;;;-0.80;99.90;;;;;;5052545;28;20263;-83
2022/02/14 01:16:27;;;;;;;53.53;22.63;;;-0.90;99.90;;;;;;5020970;28;20551;-83
2022/02/14 01:18:53;;;;;;;58.50;24.87;;;-0.90;99.90;;;;;;5042226;28;20185;-83
2022/02/14 01:21:18;;;;;;;55.10;23.33;;;-0.90;99.90;;;;;;5061484;28;20180;-85
2022/02/14 01:23:44;;;;;;;38.30;20.30;;;2.00;99.90;;;;;;5040599;28;20195;-83
2022/02/14 01:26:10;;;;;;;50.70;21.40;;;-1.00;99.90;;;;;;5021451;28;20219;-83
2022/02/14 01:28:35;;;;;;;38.73;18.87;;;1.80;99.90;;;;;;5037802;28;20195;-83
2022/02/14 01:31:01;;;;;;;38.23;17.97;;;-0.30;99.90;;;;;;5038087;28;20187;-83
2022/02/14 01:33:27;;;;;;;44.77;20.87;;;-1.00;99.90;;;;;;5037599;28;20180;-83
2022/02/14 01:35:52;;;;;;;43.67;18.00;;;0.30;99.90;;;;;;5055597;28;20193;-83
2022/02/14 01:38:18;;;;;;;44.00;18.77;;;0.30;99.90;;;;;;5021150;28;20688;-86
2022/02/14 01:40:44;;;;;;;36.83;20.10;;;0.50;99.90;;;;;;5037560;28;20180;-82
2022/02/14 01:43:15;;;;;;;41.93;20.20;;;-0.30;99.90;;;;;;5021147;28;20227;-82
2022/02/14 01:45:43;;;;;;;45.17;20.00;;;-0.20;99.90;;;;;;5038258;28;20671;-83
2022/02/14 01:48:10;;;;;;;34.90;17.13;;;-1.00;99.90;;;;;;5021623;28;20189;-83
2022/02/14 01:50:36;;;;;;;37.20;18.60;;;1.30;99.90;;;;;;5037509;28;20652;-83
2022/02/14 01:53:03;;;;;;;40.40;21.37;;;2.10;99.90;;;;;;5037567;28;20258;-83
2022/02/14 01:55:30;;;;;;;46.67;22.67;;;1.20;99.90;;;;;;5037320;28;20187;-83
2022/02/14 01:57:55;;;;;;;54.97;27.00;;;1.60;99.90;;;;;;5020570;28;20244;-83
2022/02/14 02:00:21;;;;;;;47.03;24.47;;;-1.00;99.90;;;;;;5037612;28;20172;-85
2022/02/14 02:02:47;;;;;;;46.97;21.83;;;0.10;99.90;;;;;;5055187;28;20267;-83
2022/02/14 02:05:13;;;;;;;47.77;21.23;;;;;;;;;;5037367;28;20632;-83
2022/02/14 02:07:40;;;;;;;37.77;20.63;;;-1.10;99.90;;;;;;5037077;28;20178;-83
2022/02/14 02:10:07;;;;;;;46.73;20.67;;;-1.10;99.90;;;;;;5036800;28;20188;-83
2022/02/14 02:12:33;;;;;;;37.90;19.97;;;-1.10;99.90;;;;;;5036966;28;20255;-83
2022/02/14 02:15:02;;;;;;;44.77;20.50;;;-0.60;99.90;;;;;;5037019;28;20345;-83
2022/02/14 02:17:33;;;;;;;44.30;20.13;;;-0.40;99.90;;;;;;5037072;28;20179;-84
2022/02/14 02:19:59;;;;;;;39.47;22.57;;;-1.30;99.90;;;;;;5054853;28;20174;-83
2022/02/14 02:22:25;;;;;;;43.33;22.07;;;-1.30;99.90;;;;;;5036367;28;20177;-83
2022/02/14 02:24:53;;;;;;;58.00;28.90;;;-1.30;99.90;;;;;;5054762;28;20221;-83
2022/02/14 02:27:21;;;;;;;34.07;18.23;;;1.20;99.90;;;;;;5020393;28;20197;-83
2022/02/14 02:29:48;;;;;;;33.70;16.97;;;-1.20;99.90;;;;;;5054609;28;20176;-82
2022/02/14 02:32:14;;;;;;;34.90;16.60;;;-0.20;99.90;;;;;;5020416;28;20177;-83
2022/02/14 02:34:42;;;;;;;39.50;19.33;;;1.20;99.90;;;;;;5020084;28;20181;-83
2022/02/14 02:37:10;;;;;;;38.93;17.57;;;-0.40;99.90;;;;;;5019884;28;20190;-83
2022/02/14 02:39:36;;;;;;;36.70;17.63;;;0.10;99.90;;;;;;5036357;28;20182;-83
2022/02/14 02:42:04;;;;;;;36.40;17.43;;;1.00;99.90;;;;;;5036520;28;20652;-83
2022/02/14 02:44:32;;;;;;;32.73;15.53;;;-1.50;99.90;;;;;;5054297;28;20174;-83
2022/02/14 02:47:02;;;;;;;31.27;15.57;;;1.50;99.90;;;;;;5054411;28;20257;-83
2022/02/14 02:49:27;;;;;;;35.83;16.53;;;-1.40;99.90;;;;;;5019759;28;20660;-89
2022/02/14 02:51:54;;;;;;;30.50;15.27;;;-0.10;99.90;;;;;;5019784;28;20180;-83
2022/02/14 02:54:20;;;;;;;33.37;15.90;;;-1.50;99.90;;;;;;5036307;28;20176;-83
2022/02/14 02:56:48;;;;;;;28.73;15.20;;;-1.40;99.90;;;;;;5036191;28;20185;-83
2022/02/14 02:59:14;;;;;;;30.87;14.73;;;-1.00;99.90;;;;;;5020005;28;20228;-83
2022/02/14 03:01:41;;;;;;;38.17;16.13;;;-1.50;99.90;;;;;;5054024;28;20655;-83
2022/02/14 03:04:10;;;;;;;31.90;16.33;;;0.60;99.90;;;;;;5019785;28;20548;-83
2022/02/14 03:06:37;;;;;;;29.93;16.13;;;0.50;99.90;;;;;;5019334;28;20274;-83
2022/02/14 03:09:04;;;;;;;33.53;16.33;;;0.20;99.90;;;;;;5054052;28;20189;-82
2022/02/14 03:11:30;;;;;;;33.83;16.27;;;0.60;99.90;;;;;;5053968;28;20629;-86
2022/02/14 03:13:56;;;;;;;36.23;18.27;;;-1.50;99.90;;;;;;5035821;28;20218;-83
2022/02/14 03:16:21;;;;;;;35.90;16.83;;;0.80;99.90;;;;;;5036128;28;20180;-83
2022/02/14 03:18:47;;;;;;;34.20;17.10;;;-0.30;99.90;;;;;;5019413;28;20182;-83
2022/02/14 03:21:14;;;;;;;37.63;18.47;;;0.20;99.90;;;;;;5035927;28;20545;-83
2022/02/14 03:23:40;;;;;;;41.90;19.93;;;-1.90;99.90;;;;;;5035633;28;20212;-83
2022/02/14 03:26:07;;;;;;;42.70;20.07;;;0.10;99.90;;;;;;5035769;28;20707;-83
2022/02/14 03:28:33;;;;;;;37.17;18.07;;;-1.80;99.90;;;;;;5035720;28;20541;-88
2022/02/14 03:30:59;;;;;;;34.73;17.23;;;-1.60;99.90;;;;;;5019438;28;20686;-83
2022/02/14 03:33:26;;;;;;;30.80;16.67;;;;;;;;;;5036356;28;20683;-83
2022/02/14 03:35:52;;;;;;;34.80;17.37;;;-1.90;99.90;;;;;;5053676;28;20211;-83
2022/02/14 03:38:18;;;;;;;35.20;16.83;;;-1.80;99.90;;;;;;5053047;28;20175;-83
2022/02/14 03:40:44;;;;;;;34.87;16.20;;;-1.60;99.90;;;;;;5053337;28;20681;-83
2022/02/14 03:43:10;;;;;;;27.93;15.77;;;-1.90;99.90;;;;;;5053479;28;20186;-83
2022/02/14 03:45:38;;;;;;;26.67;14.37;;;1.10;99.90;;;;;;5035779;28;20305;-85
2022/02/14 03:48:05;;;;;;;31.83;15.93;;;-1.20;99.90;;;;;;5035659;28;20182;-83
2022/02/14 03:50:30;;;;;;;29.93;15.27;;;-1.90;99.90;;;;;;5053045;28;20333;-82
2022/02/14 03:52:56;;;;;;;30.03;15.70;;;0.40;99.90;;;;;;5035668;28;20291;-83
2022/02/14 03:55:22;;;;;;;35.67;15.33;;;-1.90;99.90;;;;;;5019069;28;20200;-83
2022/02/14 03:57:50;;;;;;;29.73;16.70;;;-1.90;99.90;;;;;;5052909;28;20182;-83
2022/02/14 04:00:17;;;;;;;37.87;18.07;;;0.10;99.90;;;;;;5019251;28;20358;-83
2022/02/14 04:02:44;;;;;;;48.57;22.27;;;-1.90;99.90;;;;;;5035209;28;20277;-83
2022/02/14 04:05:11;;;;;;;54.07;23.20;;;-1.80;99.90;;;;;;5035103;28;20240;-83
2022/02/14 04:07:37;;;;;;;64.90;24.43;;;-1.70;99.90;;;;;;5034789;28;20599;-83
2022/02/14 04:10:07;;;;;;;64.10;26.63;;;-1.50;99.90;;;;;;5052721;28;20172;-83
2022/02/14 04:12:32;;;;;;;84.00;32.33;;;-1.80;99.90;;;;;;5035228;28;20240;-82
2022/02/14 04:14:58;;;;;;;71.33;26.87;;;-1.70;99.90;;;;;;5052925;28;20181;-82
2022/02/14 04:17:25;;;;;;;73.97;27.07;;;;;;;;;;5034979;28;20693;-82
2022/02/14 04:19:51;;;;;;;64.07;27.03;;;-1.80;99.90;;;;;;5018704;28;20213;-83
2022/02/14 04:22:17;;;;;;;75.00;27.47;;;;;;;;;;5018784;28;20277;-83
2022/02/14 04:24:43;;;;;;;54.07;23.23;;;-1.80;99.90;;;;;;5018418;28;20796;-84
2022/02/14 04:27:09;;;;;;;69.87;28.07;;;-0.60;99.90;;;;;;5018476;28;20373;-83
2022/02/14 04:29:34;;;;;;;249.63;111.33;;;-0.10;99.90;;;;;;5018320;28;20282;-83
2022/02/14 04:32:00;;;;;;;73.67;34.63;;;0.40;99.90;;;;;;5034697;28;20264;-83
2022/02/14 04:34:26;;;;;;;78.67;30.60;;;;;;;;;;5035227;28;20242;-83
2022/02/14 04:36:52;;;;;;;67.57;31.03;;;-1.80;99.90;;;;;;5034975;28;20186;-83
2022/02/14 04:39:19;;;;;;;78.07;33.43;;;-1.90;99.90;;;;;;5035001;28;20238;-83
2022/02/14 04:41:46;;;;;;;74.00;33.80;;;-1.80;99.90;;;;;;5034523;28;20180;-83
2022/02/14 04:44:12;;;;;;;83.00;35.40;;;-1.90;99.90;;;;;;5034885;28;20283;-83
2022/02/14 04:46:37;;;;;;;76.30;35.50;;;-1.30;99.90;;;;;;5052521;28;20298;-82
2022/02/14 04:49:05;;;;;;;87.30;37.27;;;-1.80;99.90;;;;;;5034531;28;20286;-82
2022/02/14 04:51:31;;;;;;;107.43;40.73;;;-0.90;99.90;;;;;;5021309;28;20205;-82
2022/02/14 04:53:56;;;;;;;100.30;39.13;;;0.90;99.90;;;;;;5056068;28;20275;-83
2022/02/14 04:56:22;;;;;;;115.93;47.67;;;0.80;99.90;;;;;;5057070;28;20225;-82
2022/02/14 04:58:48;;;;;;;241.53;92.83;;;-0.70;99.90;;;;;;5056618;28;20298;-83
2022/02/14 05:01:15;;;;;;;149.53;61.27;;;-1.50;99.90;;;;;;5038879;28;20184;-83
2022/02/14 05:03:41;;;;;;;94.23;41.50;;;0.50;99.90;;;;;;5056294;28;20219;-83
2022/02/14 05:06:07;;;;;;;107.53;42.90;;;-0.50;99.90;;;;;;5022288;28;20308;-83
2022/02/14 05:08:33;;;;;;;82.07;34.87;;;-0.50;99.90;;;;;;5049163;28;20176;-83
2022/02/14 05:10:58;;;;;;;82.93;33.87;;;0.50;99.90;;;;;;5062970;28;20191;-85
2022/02/14 05:13:24;;;;;;;77.27;31.27;;;-1.30;99.90;;;;;;5066827;28;20184;-83
2022/02/14 05:15:50;;;;;;;83.03;33.80;;;-1.20;99.90;;;;;;5022101;28;20294;-84
2022/02/14 05:18:16;;;;;;;69.50;30.13;;;-1.40;99.90;;;;;;5038569;28;20180;-82
2022/02/14 05:20:42;;;;;;;116.10;48.13;;;1.20;99.90;;;;;;5055960;28;20184;-83
2022/02/14 05:23:08;;;;;;;167.27;69.60;;;-1.50;99.90;;;;;;5021732;28;20690;-82
2022/02/14 05:25:34;;;;;;;190.87;78.20;;;0.90;99.90;;;;;;5038216;28;20656;-82
2022/02/14 05:28:00;;;;;;;188.80;68.33;;;1.60;99.90;;;;;;5038777;28;20195;-83
2022/02/14 05:30:25;;;;;;;185.40;69.83;;;1.10;99.90;;;;;;5038790;28;20642;-83
2022/02/14 05:32:51;;;;;;;123.73;49.70;;;1.20;99.90;;;;;;5038518;28;20184;-83
2022/02/14 05:35:17;;;;;;;90.30;34.20;;;-1.10;99.90;;;;;;5038328;28;20190;-82
2022/02/14 05:37:43;;;;;;;86.57;33.13;;;0.80;99.90;;;;;;5021893;28;20624;-82
2022/02/14 05:40:09;;;;;;;84.83;33.00;;;-1.50;99.90;;;;;;5005359;28;20539;-82
2022/02/14 05:42:34;;;;;;;66.17;29.27;;;-1.40;99.90;;;;;;5056177;28;20508;-82
2022/02/14 05:45:00;;;;;;;66.80;30.97;;;-0.60;99.90;;;;;;5039073;28;20624;-82
2022/02/14 05:47:26;;;;;;;72.77;30.50;;;1.00;99.90;;;;;;5047981;28;20187;-83
2022/02/14 05:49:52;;;;;;;80.47;35.13;;;;;;;;;;5051244;28;20198;-82
2022/02/14 05:52:17;;;;;;;81.70;38.03;;;-1.60;99.90;;;;;;5049983;28;20237;-81
2022/02/14 05:54:43;;;;;;;77.33;36.10;;;0.00;99.90;;;;;;5071077;28;20217;-82
2022/02/14 05:57:10;;;;;;;90.33;40.33;;;0.40;99.90;;;;;;5042860;28;20183;-84
2022/02/14 05:59:36;;;;;;;105.40;42.80;;;-1.20;99.90;;;;;;5071603;28;20226;-83
2022/02/14 06:02:02;;;;;;;91.77;39.10;;;-1.70;99.90;;;;;;5056012;28;20246;-85
2022/02/14 06:04:31;;;;;;;95.27;39.77;;;-1.80;99.90;;;;;;5026491;28;20191;-87
2022/02/14 06:06:57;;;;;;;107.93;46.10;;;-1.80;99.90;;;;;;5055204;28;20228;-83
2022/02/14 06:09:26;;;;;;;127.27;50.27;;;-1.00;99.90;;;;;;5069505;28;20210;-84
2022/02/14 06:11:58;;;;;;;134.80;53.80;;;-1.80;99.90;;;;;;5050995;28;20213;-83
2022/02/14 06:14:24;;;;;;;139.30;49.17;;;-1.80;99.90;;;;;;5085004;28;20174;-89
2022/02/14 06:16:50;;;;;;;117.40;49.60;;;0.40;99.90;;;;;;5044352;28;20176;-83
2022/02/14 06:19:17;;;;;;;111.80;48.87;;;;;;;;;;5060329;28;20188;-85
2022/02/14 06:21:43;;;;;;;105.50;41.67;;;-1.70;99.90;;;;;;5074627;28;20210;-82
2022/02/14 06:24:08;;;;;;;108.93;45.73;;;-1.20;99.90;;;;;;5054074;28;20184;-82
2022/02/14 06:26:34;;;;;;;100.30;44.03;;;-1.60;99.90;;;;;;5020094;28;20678;-82
2022/02/14 06:29:01;;;;;;;95.93;44.40;;;-1.60;99.90;;;;;;5034793;28;20274;-83
2022/02/14 06:31:26;;;;;;;102.03;45.83;;;-0.80;99.90;;;;;;5027019;28;20202;-83
2022/02/14 06:33:53;;;;;;;100.27;41.87;;;0.40;99.90;;;;;;5019626;28;20312;-83
2022/02/14 06:36:19;;;;;;;112.00;51.80;;;0.60;99.90;;;;;;5053459;28;20194;-82
2022/02/14 06:38:45;;;;;;;140.17;61.63;;;-1.30;99.90;;;;;;5018396;28;20187;-81
2022/02/14 06:41:12;;;;;;;141.57;64.97;;;1.40;99.90;;;;;;5033806;28;20192;-82
2022/02/14 06:43:38;;;;;;;95.57;43.87;;;-1.20;99.90;;;;;;5049387;28;20191;-85
2022/02/14 06:46:03;;;;;;;90.60;39.67;;;0.60;99.90;;;;;;5034900;28;20199;-81
2022/02/14 06:48:29;;;;;;;81.63;37.70;;;-1.20;99.90;;;;;;5035489;28;20278;-81
2022/02/14 06:50:57;;;;;;;65.87;28.87;;;0.90;99.90;;;;;;5019017;28;20189;-81
2022/02/14 06:53:23;;;;;;;66.93;28.80;;;-0.80;99.90;;;;;;5053744;28;20184;-82
2022/02/14 06:55:49;;;;;;;79.43;34.83;;;-0.30;99.90;;;;;;5035811;28;20199;-81
2022/02/14 06:58:15;;;;;;;112.30;41.90;;;1.20;99.90;;;;;;5025971;28;20347;-82
2022/02/14 07:00:41;;;;;;;89.63;36.67;;;1.30;99.90;;;;;;4997242;28;20203;-80
2022/02/14 07:03:06;;;;;;;84.87;36.93;;;-0.40;99.90;;;;;;5017084;28;20186;-82
2022/02/14 07:05:34;;;;;;;82.77;35.70;;;-0.20;99.90;;;;;;4994942;28;20226;-81
2022/02/14 07:08:01;;;;;;;77.43;34.70;;;0.00;99.90;;;;;;5013249;28;20193;-84
2022/02/14 07:10:28;;;;;;;91.30;36.07;;;1.10;99.90;;;;;;5013551;28;20208;-84
2022/02/14 07:12:54;;;;;;;91.43;35.77;;;0.10;99.90;;;;;;5011686;28;20200;-84
2022/02/14 07:15:21;;;;;;;107.67;40.20;;;1.00;99.90;;;;;;5012902;28;20650;-83
2022/02/14 07:17:49;;;;;;;135.33;46.47;;;;;;;;;;5015263;28;20188;-83
2022/02/14 07:20:16;;;;;;;104.03;39.57;;;0.60;99.90;;;;;;5013396;28;20553;-85
2022/02/14 07:22:44;;;;;;;93.23;33.80;;;;;;;;;;5014419;28;20276;-84
2022/02/14 07:25:10;;;;;;;88.00;36.40;;;;;;;;;;5014177;28;20195;-85
2022/02/14 07:27:38;;;;;;;84.93;32.80;;;1.00;99.90;;;;;;5016818;28;20721;-85
2022/02/14 07:30:10;;;;;;;42.30;18.90;;;1.60;99.90;;;;;;5013584;28;20638;-86
2022/02/14 07:32:38;;;;;;;35.50;18.23;;;;;;;;;;5014757;28;20176;-86
2022/02/14 07:35:05;;;;;;;38.87;17.87;;;1.30;99.90;;;;;;5014496;28;20265;-86
2022/02/14 07:37:31;;;;;;;33.40;16.87;;;;;;;;;;5013264;28;20645;-87
2022/02/14 07:40:00;;;;;;;24.90;13.67;;;;;;;;;;4996653;28;20200;-85
2022/02/14 07:42:28;;;;;;;28.07;14.00;;;;;;;;;;4996196;28;20284;-85
2022/02/14 07:44:54;;;;;;;22.17;12.77;;;;;;;;;;4996874;28;20219;-88
2022/02/14 07:47:20;;;;;;;26.67;12.20;;;;;;;;;;5012165;28;20226;-88
2022/02/14 07:49:47;;;;;;;19.10;10.83;;;;;;;;;;5008708;28;20185;-87
2022/02/14 07:52:17;;;;;;;26.73;12.73;;;;;;;;;;5010649;28;20192;-86
2022/02/14 07:54:43;;;;;;;19.17;10.77;;;;;;;;;;5015335;28;20193;-88
2022/02/14 07:57:22;;;;;;;22.77;12.37;;;2.50;99.90;;;;;;5001414;28;20193;-88
2022/02/14 07:59:48;;;;;;;23.67;12.60;;;;;;;;;;5042207;28;20247;-88
2022/02/14 08:02:14;;;;;;;21.90;11.40;;;;;;;;;;5037171;28;20195;-89
2022/02/14 08:04:43;;;;;;;20.40;11.97;;;;;;;;;;5036387;28;20226;-87
2022/02/14 08:07:09;;;;;;;21.90;11.97;;;;;;;;;;5053064;28;20216;-87
2022/02/14 08:09:36;;;;;;;26.70;14.47;;;;;;;;;;5026580;28;20187;-85
2022/02/14 08:12:04;;;;;;;25.93;14.70;;;;;;;;;;5036518;28;20188;-85
2022/02/14 08:14:31;;;;;;;35.47;18.00;;;;;;;;;;5017402;28;20184;-85
2022/02/14 08:16:57;;;;;;;27.83;13.87;;;;;;;;;;5011972;28;20261;-87
2022/02/14 08:19:23;;;;;;;39.70;16.80;;;;;;;;;;5019173;28;20234;-86
2022/02/14 08:21:49;;;;;;;41.80;17.63;;;;;;;;;;5018989;28;20193;-86
2022/02/14 08:24:15;;;;;;;33.70;16.97;;;;;;;;;;5040095;28;20183;-86
2022/02/14 08:26:41;;;;;;;36.37;16.70;;;;;;;;;;5040611;28;20220;-89
2022/02/14 08:29:07;;;;;;;33.73;16.03;;;;;;;;;;5039450;28;20194;-88
2022/02/14 08:31:36;;;;;;;33.67;15.60;;;;;;;;;;5044997;28;20187;-87
2022/02/14 08:34:04;;;;;;;31.67;16.13;;;3.50;99.90;;;;;;5049978;28;20187;-87
2022/02/14 08:36:32;;;;;;;31.10;15.27;;;;;;;;;;5039936;28;20239;-86
2022/02/14 08:38:59;;;;;;;24.07;13.30;;;;;;;;;;5041761;28;20179;-86
2022/02/14 08:41:25;;;;;;;30.50;15.83;;;;;;;;;;5057667;28;20187;-87
2022/02/14 08:43:52;;;;;;;33.83;14.70;;;3.70;99.90;;;;;;5024502;28;20613;-88
2022/02/14 08:46:22;;;;;;;23.13;11.60;;;3.80;99.90;;;;;;5040187;28;20667;-86
2022/02/14 08:48:54;;;;;;;25.17;12.93;;;3.80;99.90;;;;;;5021717;28;20686;-88
2022/02/14 08:51:20;;;;;;;35.50;15.77;;;3.80;99.90;;;;;;5040092;28;20201;-86
2022/02/14 08:53:47;;;;;;;25.63;13.73;;;3.90;99.90;;;;;;5045051;28;20644;-85
2022/02/14 08:56:13;;;;;;;26.90;13.57;;;3.90;99.90;;;;;;5023039;28;20191;-85
2022/02/14 08:58:39;;;;;;;35.83;15.47;;;4.00;99.90;;;;;;5057142;28;20235;-85
2022/02/14 09:01:06;;;;;;;30.77;14.73;;;4.10;99.90;;;;;;5052381;28;20194;-84
2022/02/14 09:21:43;;;;;;;24.40;11.63;;;;;;;;;;5598913;22;20689;-86
2022/02/14 09:24:13;;;;;;;21.40;11.50;;;4.50;99.90;;;;;;5027431;28;20312;-86
2022/02/14 09:26:43;;;;;;;21.63;12.43;;;4.50;99.90;;;;;;5041387;28;20218;-86
2022/02/14 09:29:11;;;;;;;18.27;10.43;;;4.60;99.90;;;;;;5039744;28;20189;-85
2022/02/14 09:31:37;;;;;;;29.07;14.03;;;;;;;;;;5056416;28;20180;-86
2022/02/14 09:34:04;;;;;;;31.30;15.03;;;4.70;99.90;;;;;;5070796;28;20286;-84
2022/02/14 09:36:30;;;;;;;24.60;12.60;;;;;;;;;;5056496;28;20180;-85
2022/02/14 09:38:56;;;;;;;24.27;12.93;;;;;;;;;;5029955;28;20186;-85
2022/02/14 09:41:23;;;;;;;18.70;11.40;;;4.90;99.90;;;;;;5039724;28;20187;-87
2022/02/14 09:43:49;;;;;;;19.77;11.00;;;;;;;;;;5039253;28;20197;-87
2022/02/14 09:46:42;;;;;;;23.53;11.57;;;5.00;99.90;;;;;;5063309;28;20225;-89
2022/02/14 09:49:24;;;;;;;21.47;10.77;;;;;;;;;;5051538;28;20211;-84
2022/02/14 09:51:53;;;;;;;27.70;14.93;;;5.10;99.90;;;;;;5056404;28;20254;-86
2022/02/14 09:54:20;;;;;;;22.73;12.30;;;;;;;;;;5040566;28;20191;-83
2022/02/14 09:56:46;;;;;;;23.60;11.90;;;;;;;;;;5056788;28;20184;-84
2022/02/14 09:59:12;;;;;;;23.47;12.03;;;;;;;;;;5021649;28;20195;-85
2022/02/14 10:01:39;;;;;;;22.70;12.63;;;5.40;99.90;;;;;;5055601;28;20164;-86
2022/02/14 10:04:05;;;;;;;32.20;12.10;;;;;;;;;;5037657;28;20175;-83
2022/02/14 10:06:37;;;;;;;21.90;12.27;;;5.50;99.90;;;;;;5054560;28;20575;-85
2022/02/14 10:09:12;;;;;;;23.80;11.43;;;5.60;99.90;;;;;;5022452;28;20198;-85
2022/02/14 10:11:54;;;;;;;22.70;11.13;;;5.80;99.90;;;;;;5038160;28;20175;-84
2022/02/14 10:14:20;;;;;;;24.70;10.93;;;;;;;;;;5038024;28;20646;-84
2022/02/14 10:17:10;;;;;;;22.70;11.90;;;5.70;99.90;;;;;;5020691;28;20249;-84
2022/02/14 10:19:53;;;;;;;23.57;11.30;;;5.90;99.90;;;;;;5026895;28;20266;-85
2022/02/14 10:22:19;;;;;;;23.77;12.33;;;;;;;;;;5037082;28;20695;-84
2022/02/14 10:24:45;;;;;;;23.80;13.23;;;;;;;;;;5036278;28;20179;-83
2022/02/14 10:27:12;;;;;;;26.27;12.47;;;6.20;99.90;;;;;;5036759;28;20228;-84
2022/02/14 10:29:41;;;;;;;21.10;10.80;;;6.30;99.90;;;;;;5036794;28;20233;-85
2022/02/14 10:32:24;;;;;;;27.50;12.10;;;6.30;99.90;;;;;;5021059;28;20644;-83
2022/02/14 10:34:53;;;;;;;27.70;13.40;;;6.40;99.90;;;;;;5051744;28;20520;-85
2022/02/14 10:37:42;;;;;;;19.27;10.63;;;6.30;99.90;;;;;;5054819;28;20168;-83
2022/02/14 10:40:09;;;;;;;20.27;11.10;;;6.40;99.90;;;;;;5022886;28;20168;-84
2022/02/14 10:42:37;;;;;;;24.10;12.00;;;6.50;99.90;;;;;;5055463;28;20511;-84
2022/02/14 10:45:07;;;;;;;33.93;13.53;;;6.50;99.90;;;;;;5059489;28;20172;-84
2022/02/14 10:47:46;;;;;;;25.13;12.63;;;6.70;99.90;;;;;;5036548;28;20257;-84
2022/02/14 10:50:20;;;;;;;22.60;12.20;;;6.60;99.90;;;;;;5056178;28;20258;-85
2022/02/14 10:52:55;;;;;;;23.77;12.73;;;5.10;99.90;;;;;;5037877;28;20182;-85
2022/02/14 10:55:32;;;;;;;23.83;12.53;;;6.90;99.90;;;;;;5056117;28;20182;-84
2022/02/14 10:57:59;;;;;;;29.07;13.13;;;7.00;99.90;;;;;;5057007;28;20156;-85
2022/02/14 11:00:27;;;;;;;21.37;11.27;;;7.00;99.90;;;;;;5022527;28;20182;-84
2022/02/14 11:02:58;;;;;;;22.13;12.40;;;7.00;99.90;;;;;;5023413;28;20180;-84
2022/02/14 11:05:26;;;;;;;22.33;12.33;;;7.00;99.90;;;;;;5038259;28;20179;-84
2022/02/14 11:07:53;;;;;;;27.17;12.07;;;;;;;;;;5058048;28;20188;-84
2022/02/14 11:10:20;;;;;;;22.03;12.30;;;7.00;99.90;;;;;;5055835;28;20237;-84
2022/02/14 11:12:56;;;;;;;23.80;11.77;;;6.90;99.90;;;;;;5037691;28;20218;-85
2022/02/14 11:15:28;;;;;;;23.67;13.13;;;6.90;99.90;;;;;;5036625;28;20249;-86
2022/02/14 11:17:59;;;;;;;26.57;12.50;;;6.90;99.90;;;;;;5036613;28;20176;-84
2022/02/14 11:20:25;;;;;;;25.07;11.83;;;;;;;;;;5037201;28;20184;-85
2022/02/14 11:22:54;;;;;;;25.20;11.83;;;6.90;99.90;;;;;;5036106;28;20330;-85
2022/02/14 11:25:35;;;;;;;25.50;12.97;;;6.90;99.90;;;;;;5054300;28;20180;-85
2022/02/14 11:28:06;;;;;;;18.43;11.20;;;7.00;99.90;;;;;;5053941;28;20233;-84
2022/02/14 11:30:32;;;;;;;19.00;11.50;;;7.00;99.90;;;;;;5036937;28;20210;-84
2022/02/14 11:33:19;;;;;;;20.37;11.10;;;7.10;99.90;;;;;;5054522;28;20172;-85
2022/02/14 11:35:59;;;;;;;22.40;11.40;;;6.90;99.90;;;;;;5036829;28;20275;-85
2022/02/14 11:38:42;;;;;;;18.43;11.27;;;7.20;99.90;;;;;;5055731;28;20254;-86
2022/02/14 11:41:23;;;;;;;20.27;11.83;;;7.30;99.90;;;;;;5054732;28;20184;-84
2022/02/14 11:43:49;;;;;;;21.20;11.67;;;;;;;;;;5050964;28;20179;-89
2022/02/14 11:46:18;;;;;;;19.17;11.67;;;7.70;99.90;;;;;;5036482;28;20204;-84
2022/02/14 11:48:52;;;;;;;26.03;12.60;;;8.20;99.90;;;;;;5036878;28;20180;-85
2022/02/14 11:51:23;;;;;;;24.67;12.43;;;;;;;;;;5049019;28;20175;-85
2022/02/14 11:53:50;;;;;;;27.57;13.73;;;;;;;;;;5051894;28;20214;-86
2022/02/14 11:56:26;;;;;;;28.30;14.73;;;8.80;98.60;;;;;;5050416;28;20188;-86
2022/02/14 11:59:02;;;;;;;22.77;12.13;;;8.80;98.30;;;;;;5047605;28;20179;-84
2022/02/14 12:01:31;;;;;;;21.40;11.00;;;8.90;96.30;;;;;;5049816;28;20222;-84
2022/02/14 12:04:38;;;;;;;19.97;11.43;;;8.90;96.50;;;;;;5050864;28;20172;-86
2022/02/14 12:07:33;;;;;;;18.83;11.40;;;8.80;97.70;;;;;;5067788;28;20203;-85
2022/02/14 12:09:58;;;;;;;18.83;10.73;;;8.70;97.90;;;;;;5031228;28;20204;-84
2022/02/14 12:12:45;;;;;;;21.97;11.20;;;9.00;96.60;;;;;;5035320;28;20246;-85
2022/02/14 12:20:40;;;;;;;17.17;10.20;;;10.30;86.10;;;;;;5060221;28;20209;-83
2022/02/14 12:23:06;;;;;;;16.53;11.27;;;;;;;;;;5045840;28;20232;-84
2022/02/14 12:25:33;;;;;;;18.97;11.03;;;;;;;;;;5049817;28;20207;-85
2022/02/14 12:28:07;;;;;;;18.03;10.87;;;10.00;84.60;;;;;;5064905;28;20199;-83
2022/02/14 12:30:33;;;;;;;21.80;11.80;;;9.70;88.60;;;;;;5037501;28;20207;-86
2022/02/14 12:33:06;;;;;;;20.37;10.33;;;9.90;91.00;;;;;;5054775;28;20179;-85
2022/02/14 12:35:40;;;;;;;22.03;12.30;;;10.30;85.00;;;;;;5035726;28;20187;-85
2022/02/14 12:38:06;;;;;;;27.40;13.33;;;;;;;;;;5036625;28;20245;-88
2022/02/14 12:40:53;;;;;;;41.30;19.37;;;10.30;84.00;;;;;;5053851;28;20187;-85
2022/02/14 12:43:46;;;;;;;43.17;19.07;;;10.90;87.90;;;;;;5038655;28;20210;-86
2022/02/14 12:46:21;;;;;;;58.63;23.27;;;10.00;87.60;;;;;;5028986;28;20204;-84
2022/02/14 12:48:49;;;;;;;66.60;25.93;;;10.00;90.20;;;;;;5034977;28;20171;-84
2022/02/14 12:51:26;;;;;;;39.00;17.70;;;10.00;90.50;;;;;;5035076;28;20233;-85
2022/02/14 12:53:58;;;;;;;55.37;21.33;;;10.30;84.40;;;;;;5034968;28;20624;-86
2022/02/14 12:56:26;;;;;;;33.70;14.83;;;10.20;84.70;;;;;;5034770;28;20179;-85
2022/02/14 12:59:11;;;;;;;34.53;15.10;;;10.50;85.80;;;;;;5052372;28;20178;-86
2022/02/14 13:01:41;;;;;;;26.63;11.73;;;10.60;83.40;;;;;;5053196;28;20180;-85
2022/02/14 13:04:07;;;;;;;20.27;11.37;;;;;;;;;;5049334;28;20650;-85
2022/02/14 13:06:51;;;;;;;21.10;11.33;;;10.80;79.30;;;;;;5034565;28;20203;-85
2022/02/14 13:09:32;;;;;;;29.50;14.43;;;10.90;80.10;;;;;;5049740;28;20187;-86
2022/02/14 13:12:00;;;;;;;32.40;14.70;;;11.10;80.80;;;;;;5037282;28;20179;-87
2022/02/14 13:14:33;;;;;;;42.70;17.97;;;11.30;78.50;;;;;;5039187;28;20628;-86
2022/02/14 13:17:01;;;;;;;32.30;14.97;;;11.60;76.20;;;;;;5045499;28;20188;-88
2022/02/14 13:19:29;;;;;;;46.38;20.10;;;11.80;74.50;;;;;;5078210;28;20172;-90
2022/02/14 13:21:55;;;;;;;42.50;20.42;;;12.10;72.30;;;;;;5080360;28;20164;-86